Time,TemperatureF,DewpointF,PressureIn,WindDirection,WindDirectionDegrees,WindSpeedMPH,WindSpeedGustMPH,Humidity,HourlyPrecipIn,Conditions,Clouds,dailyrainin,SoftwareType,DateUTC
2013-07-02 00:05:00,61.2,61.2,30.00,SSE,165,0.0,0.0,100,0.00,,,0.00,Wunderground v.1.15,2013-07-02 07:05:00,
2013-07-02 00:35:00,61.0,61.0,29.99,SSE,165,0.0,0.0,100,0.00,,,0.00,Wunderground v.1.15,2013-07-02 07:35:00,
2013-07-02 01:05:00,61.0,61.0,29.99,SSE,165,0.0,0.0,100,0.00,,,0.00,Wunderground v.1.15,2013-07-02 08:05:00,
2013-07-02 01:35:00,61.2,61.2,30.00,SSE,165,0.0,0.0,100,0.00,,,0.00,Wunderground v.1.15,2013-07-02 08:35:00,
2013-07-02 02:05:00,61.0,61.0,29.99,SSE,165,0.0,0.0,100,0.00,,,0.00,Wunderground v.1.15,2013-07-02 09:05:00,
2013-07-02 02:35:00,61.0,61.0,29.99,SSE,165,0.0,0.0,100,0.00,,,0.00,Wunderground v.1.15,2013-07-02 09:35:00,
2013-07-02 03:05:00,60.5,60.5,29.99,SSE,165,0.0,0.0,100,0.00,,,0.00,Wunderground v.1.15,2013-07-02 10:05:00,
2013-07-02 03:35:00,60.4,60.4,29.99,SSE,165,0.0,0.0,100,0.00,,,0.00,Wunderground v.1.15,2013-07-02 10:35:00,
2013-07-02 04:05:00,60.1,60.1,30.00,SSE,165,0.0,0.0,100,0.00,,,0.00,Wunderground v.1.15,2013-07-02 11:05:00,
2013-07-02 04:35:00,60.1,60.1,30.00,SSE,165,0.0,0.0,100,0.00,,,0.00,Wunderground v.1.15,2013-07-02 11:35:00,
2013-07-02 05:05:00,59.9,59.9,30.01,SSE,165,0.0,0.0,100,0.00,,,0.00,Wunderground v.1.15,2013-07-02 12:05:00,
2013-07-02 05:35:00,59.9,59.9,30.00,SSE,165,0.0,0.0,100,0.00,,,0.00,Wunderground v.1.15,2013-07-02 12:35:00,
2013-07-02 06:05:00,59.9,59.9,30.02,SSE,165,0.0,0.0,100,0.00,,,0.00,Wunderground v.1.15,2013-07-02 13:05:00,
2013-07-02 06:35:00,59.6,59.6,30.02,SSE,165,0.0,0.0,100,0.00,,,0.00,Wunderground v.1.15,2013-07-02 13:35:00,
2013-07-02 07:05:00,59.9,59.9,30.03,SSE,165,0.0,0.0,100,0.00,,,0.00,Wunderground v.1.15,2013-07-02 14:05:00,
2013-07-02 07:35:00,60.2,60.2,30.03,SSE,165,0.0,0.0,100,0.00,,,0.00,Wunderground v.1.15,2013-07-02 14:35:00,
2013-07-02 08:05:00,60.7,60.7,30.03,SSE,165,0.0,0.0,100,0.00,,,0.00,Wunderground v.1.15,2013-07-02 15:05:00,
2013-07-02 08:35:00,61.0,61.0,30.03,SSE,165,0.0,0.0,100,0.00,,,0.00,Wunderground v.1.15,2013-07-02 15:35:00,
2013-07-02 09:05:00,62.0,62.0,30.03,SSE,165,0.0,0.0,100,0.00,,,0.00,Wunderground v.1.15,2013-07-02 16:05:00,
2013-07-02 09:35:00,63.1,63.1,30.02,SSE,165,0.0,0.0,100,0.00,,,0.00,Wunderground v.1.15,2013-07-02 16:35:00,
2013-07-02 10:05:00,65.0,65.0,30.02,SSE,165,0.0,0.0,100,0.00,,,0.00,Wunderground v.1.15,2013-07-02 17:05:00,
2013-07-02 10:35:00,66.6,65.7,30.02,SSE,164,0.0,0.0,97,0.00,,,0.00,Wunderground v.1.15,2013-07-02 17:35:00,
2013-07-02 11:05:00,66.6,64.5,30.02,SSE,164,0.0,0.0,93,0.00,,,0.00,Wunderground v.1.15,2013-07-02 18:05:00,
2013-07-02 11:35:00,66.6,64.5,30.02,SSE,164,0.0,0.0,93,0.00,,,0.00,Wunderground v.1.15,2013-07-02 18:35:00,
2013-07-02 12:05:00,70.6,68.5,30.02,ESE,121,0.0,0.0,93,0.00,,,0.00,Wunderground v.1.15,2013-07-02 19:05:00,
2013-07-02 12:35:00,72.3,67.2,30.02,SSE,148,0.0,0.0,84,0.00,,,0.00,Wunderground v.1.15,2013-07-02 19:35:00,
2013-07-02 13:05:00,-999.9,-99.9,30.01,North,32767,-999.0,0.0,255,-99.99,,,0.00,Wunderground v.1.15,2013-07-02 20:05:00,
2013-07-02 13:35:00,74.6,-99.9,30.02,SE,136,0.0,0.0,255,-99.99,,,0.00,Wunderground v.1.15,2013-07-02 20:35:00,
2013-07-02 14:05:00,75.3,-99.9,30.02,ESE,112,1.0,1.0,255,0.00,,,0.00,Wunderground v.1.15,2013-07-02 21:05:00,
2013-07-02 14:35:00,73.3,64.9,30.02,SSE,151,0.0,0.0,75,0.00,,,0.00,Wunderground v.1.15,2013-07-02 21:35:00,
2013-07-02 15:05:00,74.2,65.0,30.02,East,83,0.0,0.0,73,0.00,,,0.00,Wunderground v.1.15,2013-07-02 22:05:00,
2013-07-02 15:35:00,74.0,65.2,30.01,ESE,103,0.0,0.0,74,0.00,,,0.00,Wunderground v.1.15,2013-07-02 22:35:00,
2013-07-02 16:05:00,74.2,65.8,30.00,SSE,152,0.0,0.0,75,0.00,,,0.00,Wunderground v.1.15,2013-07-02 23:05:00,
2013-07-02 16:35:00,73.3,65.3,30.00,West,261,0.0,0.0,76,0.00,,,0.00,Wunderground v.1.15,2013-07-02 23:35:00,
2013-07-02 17:35:00,69.9,63.8,29.99,SSE,164,0.0,0.0,81,0.00,,,0.00,Wunderground v.1.15,2013-07-03 00:35:00,
2013-07-02 18:05:00,69.6,63.9,29.99,East,99,0.0,1.0,82,0.00,,,0.00,Wunderground v.1.15,2013-07-03 01:05:00,
2013-07-02 18:35:00,68.6,63.6,29.98,SSW,193,0.0,0.0,84,0.00,,,0.00,Wunderground v.1.15,2013-07-03 01:35:00,
2013-07-02 19:05:00,67.3,63.0,29.98,SE,137,0.0,0.0,86,0.00,,,0.00,Wunderground v.1.15,2013-07-03 02:05:00,
2013-07-02 19:35:00,65.8,63.1,29.98,WSW,256,0.0,0.0,91,0.00,,,0.00,Wunderground v.1.15,2013-07-03 02:35:00,
2013-07-02 20:05:00,-999.9,-99.9,29.98,North,32767,-999.0,0.0,255,-99.99,,,0.00,Wunderground v.1.15,2013-07-03 03:05:00,
2013-07-02 21:05:00,63.2,-99.9,30.00,WSW,256,0.0,0.0,255,0.00,,,0.00,Wunderground v.1.15,2013-07-03 04:05:00,
2013-07-02 21:35:00,61.3,61.0,30.00,WSW,256,0.0,0.0,99,0.00,,,0.00,Wunderground v.1.15,2013-07-03 04:35:00,
2013-07-02 22:05:00,60.5,60.5,30.01,ESE,113,0.0,0.0,100,0.00,,,0.00,Wunderground v.1.15,2013-07-03 05:05:00,
2013-07-02 22:35:00,59.9,59.9,30.02,ESE,114,0.0,0.0,100,0.00,,,0.00,Wunderground v.1.15,2013-07-03 05:35:00,
2013-07-02 23:35:00,59.0,59.0,30.02,NNE,14,0.0,0.0,100,0.00,,,0.00,Wunderground v.1.15,2013-07-03 06:35:00,